sensor_id;sensor_type;location;lat;lon;timestamp;pressure;altitude;pressure_sealevel;temperature;humidity
75788;BME280;64406;50.024;14.492;2022-12-18T00:00:41;99469.16;;;-8.81;89.59
75788;BME280;64406;50.024;14.492;2022-12-18T00:03:27;99467.56;;;-8.72;90.50
75788;BME280;64406;50.024;14.492;2022-12-18T00:05:53;99481.44;;;-8.71;89.78
75788;BME280;64406;50.024;14.492;2022-12-18T00:08:19;99476.34;;;-8.73;90.53
75788;BME280;64406;50.024;14.492;2022-12-18T00:10:45;99488.91;;;-8.67;89.61
75788;BME280;64406;50.024;14.492;2022-12-18T00:13:11;99487.91;;;-8.75;89.74
75788;BME280;64406;50.024;14.492;2022-12-18T00:15:37;99481.06;;;-8.88;89.82
75788;BME280;64406;50.024;14.492;2022-12-18T00:18:04;99477.09;;;-9.03;89.46
75788;BME280;64406;50.024;14.492;2022-12-18T00:20:30;99479.38;;;-9.21;89.79
75788;BME280;64406;50.024;14.492;2022-12-18T00:22:55;99478.53;;;-9.21;89.75
75788;BME280;64406;50.024;14.492;2022-12-18T00:25:21;99479.84;;;-9.16;89.43
75788;BME280;64406;50.024;14.492;2022-12-18T00:27:47;99478.28;;;-9.18;88.36
75788;BME280;64406;50.024;14.492;2022-12-18T00:30:13;99487.69;;;-9.27;87.69
75788;BME280;64406;50.024;14.492;2022-12-18T00:32:38;99497.78;;;-9.34;87.73
75788;BME280;64406;50.024;14.492;2022-12-18T00:35:05;99501.34;;;-9.35;86.89
75788;BME280;64406;50.024;14.492;2022-12-18T00:37:33;99499.81;;;-9.48;85.09
75788;BME280;64406;50.024;14.492;2022-12-18T00:39:58;99500.75;;;-9.61;85.74
75788;BME280;64406;50.024;14.492;2022-12-18T00:42:24;99514.88;;;-9.74;85.88
75788;BME280;64406;50.024;14.492;2022-12-18T00:45:08;99519.72;;;-9.81;85.84
75788;BME280;64406;50.024;14.492;2022-12-18T00:47:34;99513.69;;;-9.70;86.77
75788;BME280;64406;50.024;14.492;2022-12-18T00:49:59;99510.47;;;-9.74;87.31
75788;BME280;64406;50.024;14.492;2022-12-18T00:52:25;99511.53;;;-9.65;87.53
75788;BME280;64406;50.024;14.492;2022-12-18T00:54:50;99517.72;;;-9.66;87.42
75788;BME280;64406;50.024;14.492;2022-12-18T00:57:16;99522.44;;;-9.71;87.06
75788;BME280;64406;50.024;14.492;2022-12-18T00:59:42;99520.19;;;-9.87;87.63
75788;BME280;64406;50.024;14.492;2022-12-18T01:02:08;99533.34;;;-9.66;87.45
75788;BME280;64406;50.024;14.492;2022-12-18T01:04:33;99525.19;;;-9.62;87.48
75788;BME280;64406;50.024;14.492;2022-12-18T01:06:59;99527.91;;;-9.63;87.98
75788;BME280;64406;50.024;14.492;2022-12-18T01:09:25;99531.72;;;-9.56;87.36
75788;BME280;64406;50.024;14.492;2022-12-18T01:11:51;99535.00;;;-9.54;87.97
75788;BME280;64406;50.024;14.492;2022-12-18T01:14:17;99532.75;;;-9.47;88.15
75788;BME280;64406;50.024;14.492;2022-12-18T01:16:42;99523.75;;;-9.54;87.62
75788;BME280;64406;50.024;14.492;2022-12-18T01:19:08;99523.50;;;-9.51;87.51
75788;BME280;64406;50.024;14.492;2022-12-18T01:21:34;99527.81;;;-9.50;87.18
75788;BME280;64406;50.024;14.492;2022-12-18T01:23:59;99542.22;;;-9.57;86.30
75788;BME280;64406;50.024;14.492;2022-12-18T01:26:26;99541.78;;;-9.63;86.02
75788;BME280;64406;50.024;14.492;2022-12-18T01:28:55;99548.16;;;-9.78;85.96
75788;BME280;64406;50.024;14.492;2022-12-18T01:31:27;99553.25;;;-9.88;86.32
75788;BME280;64406;50.024;14.492;2022-12-18T01:33:54;99542.22;;;-9.80;85.50
75788;BME280;64406;50.024;14.492;2022-12-18T01:36:29;99545.66;;;-9.79;85.02
75788;BME280;64406;50.024;14.492;2022-12-18T01:38:55;99554.78;;;-9.96;84.77
75788;BME280;64406;50.024;14.492;2022-12-18T01:41:24;99555.19;;;-10.14;85.72
75788;BME280;64406;50.024;14.492;2022-12-18T01:46:17;99557.16;;;-10.39;84.81
75788;BME280;64406;50.024;14.492;2022-12-18T01:48:44;99562.56;;;-10.54;85.17
75788;BME280;64406;50.024;14.492;2022-12-18T01:51:12;99567.50;;;-10.62;84.70
75788;BME280;64406;50.024;14.492;2022-12-18T01:53:39;99565.09;;;-10.65;84.41
75788;BME280;64406;50.024;14.492;2022-12-18T01:56:06;99557.63;;;-10.70;84.94
75788;BME280;64406;50.024;14.492;2022-12-18T01:58:39;99564.28;;;-10.65;84.86
75788;BME280;64406;50.024;14.492;2022-12-18T02:01:07;99557.84;;;-10.73;84.34
75788;BME280;64406;50.024;14.492;2022-12-18T02:03:33;99566.41;;;-10.83;84.02
75788;BME280;64406;50.024;14.492;2022-12-18T02:16:34;99570.56;;;-10.57;83.84
75788;BME280;64406;50.024;14.492;2022-12-18T02:19:32;99580.06;;;-10.56;83.07
75788;BME280;64406;50.024;14.492;2022-12-18T02:22:20;99594.13;;;-10.58;83.23
75788;BME280;64406;50.024;14.492;2022-12-18T02:25:01;99588.72;;;-10.55;83.27
75788;BME280;64406;50.024;14.492;2022-12-18T02:27:31;99591.19;;;-10.30;83.62
75788;BME280;64406;50.024;14.492;2022-12-18T02:29:59;99592.13;;;-10.20;83.20
75788;BME280;64406;50.024;14.492;2022-12-18T02:32:49;99588.03;;;-10.00;83.02
75788;BME280;64406;50.024;14.492;2022-12-18T02:35:24;99592.91;;;-9.95;83.42
75788;BME280;64406;50.024;14.492;2022-12-18T02:37:55;99587.63;;;-9.82;83.92
75788;BME280;64406;50.024;14.492;2022-12-18T02:40:22;99581.84;;;-9.64;83.84
75788;BME280;64406;50.024;14.492;2022-12-18T02:42:49;99579.84;;;-9.49;83.23
75788;BME280;64406;50.024;14.492;2022-12-18T02:45:14;99589.06;;;-9.34;83.95
75788;BME280;64406;50.024;14.492;2022-12-18T02:47:42;99574.00;;;-9.19;83.55
75788;BME280;64406;50.024;14.492;2022-12-18T02:50:34;99579.91;;;-9.06;82.97
75788;BME280;64406;50.024;14.492;2022-12-18T02:53:30;99591.06;;;-8.92;82.72
75788;BME280;64406;50.024;14.492;2022-12-18T02:56:26;99585.34;;;-8.86;82.17
75788;BME280;64406;50.024;14.492;2022-12-18T03:01:44;99582.88;;;-8.88;82.33
75788;BME280;64406;50.024;14.492;2022-12-18T03:04:18;99582.84;;;-8.77;81.68
75788;BME280;64406;50.024;14.492;2022-12-18T03:06:49;99598.97;;;-8.71;81.30
75788;BME280;64406;50.024;14.492;2022-12-18T03:09:21;99596.31;;;-8.60;81.35
75788;BME280;64406;50.024;14.492;2022-12-18T03:11:55;99594.66;;;-8.50;80.66
75788;BME280;64406;50.024;14.492;2022-12-18T03:14:43;99599.13;;;-8.41;81.03
75788;BME280;64406;50.024;14.492;2022-12-18T03:17:16;99607.91;;;-8.42;80.99
75788;BME280;64406;50.024;14.492;2022-12-18T03:19:44;99590.59;;;-8.43;81.29
75788;BME280;64406;50.024;14.492;2022-12-18T03:22:12;99592.69;;;-8.37;81.83
75788;BME280;64406;50.024;14.492;2022-12-18T03:24:39;99605.66;;;-8.26;82.61
75788;BME280;64406;50.024;14.492;2022-12-18T03:27:09;99605.56;;;-8.24;81.83
75788;BME280;64406;50.024;14.492;2022-12-18T03:29:47;99609.06;;;-8.14;82.15
75788;BME280;64406;50.024;14.492;2022-12-18T03:32:25;99612.16;;;-8.09;81.11
75788;BME280;64406;50.024;14.492;2022-12-18T03:34:55;99606.66;;;-8.06;81.39
75788;BME280;64406;50.024;14.492;2022-12-18T03:37:23;99610.22;;;-8.07;80.80
75788;BME280;64406;50.024;14.492;2022-12-18T03:39:49;99616.50;;;-7.98;80.45
75788;BME280;64406;50.024;14.492;2022-12-18T03:42:20;99613.13;;;-7.89;80.74
75788;BME280;64406;50.024;14.492;2022-12-18T03:50:40;99624.41;;;-7.68;80.71
75788;BME280;64406;50.024;14.492;2022-12-18T03:55:47;99623.25;;;-7.54;81.98
75788;BME280;64406;50.024;14.492;2022-12-18T03:58:17;99637.28;;;-7.55;80.92
75788;BME280;64406;50.024;14.492;2022-12-18T04:00:44;99626.78;;;-7.64;82.61
75788;BME280;64406;50.024;14.492;2022-12-18T04:03:10;99623.06;;;-7.62;81.59
75788;BME280;64406;50.024;14.492;2022-12-18T04:05:38;99635.28;;;-7.72;83.13
75788;BME280;64406;50.024;14.492;2022-12-18T04:08:04;99630.03;;;-7.72;83.63
75788;BME280;64406;50.024;14.492;2022-12-18T04:10:30;99626.28;;;-7.58;83.86
75788;BME280;64406;50.024;14.492;2022-12-18T04:12:57;99626.84;;;-7.55;83.40
75788;BME280;64406;50.024;14.492;2022-12-18T04:15:23;99627.72;;;-7.45;84.12
75788;BME280;64406;50.024;14.492;2022-12-18T04:17:49;99634.41;;;-7.31;82.72
75788;BME280;64406;50.024;14.492;2022-12-18T04:20:16;99632.09;;;-7.24;83.87
75788;BME280;64406;50.024;14.492;2022-12-18T04:22:42;99630.63;;;-7.17;82.67
75788;BME280;64406;50.024;14.492;2022-12-18T04:25:12;99636.69;;;-7.17;82.66
75788;BME280;64406;50.024;14.492;2022-12-18T04:27:37;99636.03;;;-7.09;82.84
75788;BME280;64406;50.024;14.492;2022-12-18T04:30:03;99642.09;;;-7.08;81.93
75788;BME280;64406;50.024;14.492;2022-12-18T04:32:29;99644.97;;;-7.12;82.55
75788;BME280;64406;50.024;14.492;2022-12-18T04:34:55;99645.28;;;-7.05;82.90
75788;BME280;64406;50.024;14.492;2022-12-18T04:37:20;99658.31;;;-7.15;82.64
75788;BME280;64406;50.024;14.492;2022-12-18T04:39:46;99653.81;;;-7.13;83.24
75788;BME280;64406;50.024;14.492;2022-12-18T04:42:11;99656.16;;;-7.09;83.37
75788;BME280;64406;50.024;14.492;2022-12-18T04:44:37;99651.34;;;-7.04;82.91
75788;BME280;64406;50.024;14.492;2022-12-18T04:47:03;99650.41;;;-6.94;83.07
75788;BME280;64406;50.024;14.492;2022-12-18T04:49:28;99642.75;;;-6.76;82.29
75788;BME280;64406;50.024;14.492;2022-12-18T04:51:54;99638.28;;;-6.95;82.27
75788;BME280;64406;50.024;14.492;2022-12-18T04:54:20;99638.72;;;-6.90;82.67
75788;BME280;64406;50.024;14.492;2022-12-18T04:56:45;99644.25;;;-6.93;82.46
75788;BME280;64406;50.024;14.492;2022-12-18T04:59:11;99653.47;;;-6.89;81.56
75788;BME280;64406;50.024;14.492;2022-12-18T05:01:37;99646.72;;;-6.91;81.72
75788;BME280;64406;50.024;14.492;2022-12-18T05:04:03;99649.63;;;-6.85;82.65
75788;BME280;64406;50.024;14.492;2022-12-18T05:06:28;99653.63;;;-6.80;82.31
75788;BME280;64406;50.024;14.492;2022-12-18T05:08:55;99646.38;;;-6.67;81.58
75788;BME280;64406;50.024;14.492;2022-12-18T05:11:20;99649.41;;;-6.72;81.01
75788;BME280;64406;50.024;14.492;2022-12-18T05:13:46;99661.25;;;-6.77;81.64
75788;BME280;64406;50.024;14.492;2022-12-18T05:16:12;99661.63;;;-6.82;82.15
75788;BME280;64406;50.024;14.492;2022-12-18T05:18:38;99661.09;;;-6.76;81.11
75788;BME280;64406;50.024;14.492;2022-12-18T05:21:04;99676.16;;;-6.68;81.15
75788;BME280;64406;50.024;14.492;2022-12-18T05:23:30;99684.00;;;-6.68;81.41
75788;BME280;64406;50.024;14.492;2022-12-18T05:25:58;99681.28;;;-6.67;81.14
75788;BME280;64406;50.024;14.492;2022-12-18T05:28:26;99686.78;;;-6.70;80.97
75788;BME280;64406;50.024;14.492;2022-12-18T05:30:54;99689.16;;;-6.57;81.35
75788;BME280;64406;50.024;14.492;2022-12-18T05:33:22;99689.56;;;-6.62;81.16
75788;BME280;64406;50.024;14.492;2022-12-18T05:35:55;99688.88;;;-6.54;80.64
75788;BME280;64406;50.024;14.492;2022-12-18T05:38:23;99692.44;;;-6.65;81.52
75788;BME280;64406;50.024;14.492;2022-12-18T05:40:49;99693.41;;;-6.66;80.51
75788;BME280;64406;50.024;14.492;2022-12-18T05:43:15;99689.31;;;-6.59;80.66
75788;BME280;64406;50.024;14.492;2022-12-18T05:45:41;99682.66;;;-6.63;80.13
75788;BME280;64406;50.024;14.492;2022-12-18T05:48:08;99693.28;;;-6.64;80.32
75788;BME280;64406;50.024;14.492;2022-12-18T05:50:35;99696.94;;;-6.76;80.79
75788;BME280;64406;50.024;14.492;2022-12-18T05:53:02;99697.00;;;-6.67;80.87
75788;BME280;64406;50.024;14.492;2022-12-18T05:55:28;99701.38;;;-6.67;80.52
75788;BME280;64406;50.024;14.492;2022-12-18T05:57:53;99711.19;;;-6.69;80.83
75788;BME280;64406;50.024;14.492;2022-12-18T06:00:19;99697.03;;;-6.57;80.96
75788;BME280;64406;50.024;14.492;2022-12-18T06:02:48;99710.44;;;-6.50;80.17
75788;BME280;64406;50.024;14.492;2022-12-18T06:05:13;99717.28;;;-6.59;79.83
75788;BME280;64406;50.024;14.492;2022-12-18T06:07:39;99710.81;;;-6.55;79.76
75788;BME280;64406;50.024;14.492;2022-12-18T06:10:05;99717.03;;;-6.56;79.65
75788;BME280;64406;50.024;14.492;2022-12-18T06:12:31;99717.28;;;-6.59;80.07
75788;BME280;64406;50.024;14.492;2022-12-18T06:14:59;99725.84;;;-6.57;79.84
75788;BME280;64406;50.024;14.492;2022-12-18T06:17:31;99729.97;;;-6.54;79.65
75788;BME280;64406;50.024;14.492;2022-12-18T06:19:57;99731.16;;;-6.68;81.33
75788;BME280;64406;50.024;14.492;2022-12-18T06:22:24;99733.84;;;-6.59;81.61
75788;BME280;64406;50.024;14.492;2022-12-18T06:24:49;99725.19;;;-6.49;81.49
75788;BME280;64406;50.024;14.492;2022-12-18T06:27:15;99735.94;;;-6.52;80.17
75788;BME280;64406;50.024;14.492;2022-12-18T06:29:41;99742.84;;;-6.51;80.24
75788;BME280;64406;50.024;14.492;2022-12-18T06:32:07;99732.06;;;-6.58;81.28
75788;BME280;64406;50.024;14.492;2022-12-18T06:34:33;99732.59;;;-6.64;82.21
75788;BME280;64406;50.024;14.492;2022-12-18T06:36:59;99739.63;;;-6.65;82.27
75788;BME280;64406;50.024;14.492;2022-12-18T06:39:27;99744.03;;;-6.65;81.58
75788;BME280;64406;50.024;14.492;2022-12-18T06:41:53;99754.50;;;-6.65;82.52
75788;BME280;64406;50.024;14.492;2022-12-18T06:44:18;99742.75;;;-6.71;82.55
75788;BME280;64406;50.024;14.492;2022-12-18T06:46:44;99760.72;;;-6.66;81.98
75788;BME280;64406;50.024;14.492;2022-12-18T06:49:09;99760.06;;;-6.59;82.67
75788;BME280;64406;50.024;14.492;2022-12-18T06:51:35;99768.34;;;-6.53;81.66
75788;BME280;64406;50.024;14.492;2022-12-18T06:54:01;99773.84;;;-6.57;81.97
75788;BME280;64406;50.024;14.492;2022-12-18T06:56:27;99774.66;;;-6.56;82.37
75788;BME280;64406;50.024;14.492;2022-12-18T06:58:53;99775.91;;;-6.60;82.51
75788;BME280;64406;50.024;14.492;2022-12-18T07:01:19;99781.72;;;-6.57;81.87
75788;BME280;64406;50.024;14.492;2022-12-18T07:03:44;99782.16;;;-6.51;83.20
75788;BME280;64406;50.024;14.492;2022-12-18T07:06:15;99793.28;;;-6.59;82.57
75788;BME280;64406;50.024;14.492;2022-12-18T07:08:41;99804.91;;;-6.52;82.08
75788;BME280;64406;50.024;14.492;2022-12-18T07:11:07;99796.09;;;-6.51;82.83
75788;BME280;64406;50.024;14.492;2022-12-18T07:13:32;99797.88;;;-6.51;82.85
75788;BME280;64406;50.024;14.492;2022-12-18T07:16:09;99804.28;;;-6.35;81.79
75788;BME280;64406;50.024;14.492;2022-12-18T07:18:35;99810.34;;;-6.34;80.74
75788;BME280;64406;50.024;14.492;2022-12-18T07:21:09;99801.66;;;-6.35;81.92
75788;BME280;64406;50.024;14.492;2022-12-18T07:23:35;99801.84;;;-6.26;81.67
75788;BME280;64406;50.024;14.492;2022-12-18T07:26:07;99795.06;;;-6.29;81.01
75788;BME280;64406;50.024;14.492;2022-12-18T07:28:34;99800.44;;;-6.31;81.73
75788;BME280;64406;50.024;14.492;2022-12-18T07:31:05;99802.47;;;-6.34;82.06
75788;BME280;64406;50.024;14.492;2022-12-18T07:33:33;99812.03;;;-6.33;81.01
75788;BME280;64406;50.024;14.492;2022-12-18T07:36:02;99823.03;;;-6.39;81.63
75788;BME280;64406;50.024;14.492;2022-12-18T07:38:29;99828.69;;;-6.34;81.47
75788;BME280;64406;50.024;14.492;2022-12-18T07:41:00;99835.34;;;-6.30;80.40
75788;BME280;64406;50.024;14.492;2022-12-18T07:43:26;99834.22;;;-6.37;80.55
75788;BME280;64406;50.024;14.492;2022-12-18T07:45:51;99832.44;;;-6.37;80.41
75788;BME280;64406;50.024;14.492;2022-12-18T07:48:17;99825.31;;;-6.25;81.00
75788;BME280;64406;50.024;14.492;2022-12-18T07:50:42;99834.09;;;-6.36;80.40
75788;BME280;64406;50.024;14.492;2022-12-18T07:53:08;99838.25;;;-6.33;80.49
75788;BME280;64406;50.024;14.492;2022-12-18T07:55:33;99841.69;;;-6.33;80.82
75788;BME280;64406;50.024;14.492;2022-12-18T07:58:03;99853.47;;;-6.27;79.78
75788;BME280;64406;50.024;14.492;2022-12-18T08:00:30;99853.53;;;-6.38;80.91
75788;BME280;64406;50.024;14.492;2022-12-18T08:02:56;99856.28;;;-6.40;79.92
75788;BME280;64406;50.024;14.492;2022-12-18T08:05:22;99851.28;;;-6.43;79.66
75788;BME280;64406;50.024;14.492;2022-12-18T08:07:47;99847.91;;;-6.54;79.76
75788;BME280;64406;50.024;14.492;2022-12-18T08:10:13;99843.09;;;-6.59;80.22
75788;BME280;64406;50.024;14.492;2022-12-18T08:12:39;99849.81;;;-6.66;80.10
75788;BME280;64406;50.024;14.492;2022-12-18T08:15:05;99854.78;;;-6.63;80.03
75788;BME280;64406;50.024;14.492;2022-12-18T08:17:31;99854.44;;;-6.70;80.35
75788;BME280;64406;50.024;14.492;2022-12-18T08:19:56;99857.16;;;-6.60;80.09
75788;BME280;64406;50.024;14.492;2022-12-18T08:22:22;99861.75;;;-6.52;80.41
75788;BME280;64406;50.024;14.492;2022-12-18T08:24:47;99857.34;;;-6.52;79.11
75788;BME280;64406;50.024;14.492;2022-12-18T08:27:13;99850.03;;;-6.48;78.50
75788;BME280;64406;50.024;14.492;2022-12-18T08:29:38;99843.09;;;-6.59;79.60
75788;BME280;64406;50.024;14.492;2022-12-18T08:32:04;99852.41;;;-6.66;78.89
75788;BME280;64406;50.024;14.492;2022-12-18T08:34:30;99842.81;;;-6.77;79.14
75788;BME280;64406;50.024;14.492;2022-12-18T08:36:55;99849.03;;;-6.99;79.91
75788;BME280;64406;50.024;14.492;2022-12-18T08:39:21;99849.44;;;-6.94;78.96
75788;BME280;64406;50.024;14.492;2022-12-18T08:41:46;99850.56;;;-6.96;80.25
75788;BME280;64406;50.024;14.492;2022-12-18T08:44:32;99845.81;;;-6.81;79.86
75788;BME280;64406;50.024;14.492;2022-12-18T08:47:05;99860.47;;;-6.79;79.54
75788;BME280;64406;50.024;14.492;2022-12-18T08:49:31;99861.94;;;-6.86;79.59
75788;BME280;64406;50.024;14.492;2022-12-18T08:51:56;99853.63;;;-6.70;79.66
75788;BME280;64406;50.024;14.492;2022-12-18T08:54:26;99856.38;;;-6.72;78.99
75788;BME280;64406;50.024;14.492;2022-12-18T08:56:51;99857.16;;;-6.60;78.46
75788;BME280;64406;50.024;14.492;2022-12-18T08:59:18;99860.91;;;-6.53;78.61
75788;BME280;64406;50.024;14.492;2022-12-18T09:01:44;99865.25;;;-6.63;79.03
75788;BME280;64406;50.024;14.492;2022-12-18T09:04:10;99869.28;;;-6.59;78.47
75788;BME280;64406;50.024;14.492;2022-12-18T09:06:36;99858.72;;;-6.69;78.30
75788;BME280;64406;50.024;14.492;2022-12-18T09:09:02;99858.69;;;-6.78;79.43
75788;BME280;64406;50.024;14.492;2022-12-18T09:11:29;99872.22;;;-6.73;78.68
75788;BME280;64406;50.024;14.492;2022-12-18T09:13:56;99871.97;;;-6.70;78.90
75788;BME280;64406;50.024;14.492;2022-12-18T09:16:23;99869.41;;;-6.61;78.67
75788;BME280;64406;50.024;14.492;2022-12-18T09:18:49;99857.53;;;-6.65;77.86
75788;BME280;64406;50.024;14.492;2022-12-18T09:21:19;99851.19;;;-6.83;78.45
75788;BME280;64406;50.024;14.492;2022-12-18T09:23:55;99864.44;;;-6.85;78.27
75788;BME280;64406;50.024;14.492;2022-12-18T09:26:22;99853.16;;;-6.75;77.32
75788;BME280;64406;50.024;14.492;2022-12-18T09:28:48;99859.22;;;-6.54;77.76
75788;BME280;64406;50.024;14.492;2022-12-18T09:31:15;99861.28;;;-6.58;78.20
75788;BME280;64406;50.024;14.492;2022-12-18T09:33:42;99856.28;;;-6.61;76.66
75788;BME280;64406;50.024;14.492;2022-12-18T09:36:09;99856.44;;;-6.62;77.55
75788;BME280;64406;50.024;14.492;2022-12-18T09:38:35;99861.66;;;-6.62;78.39
75788;BME280;64406;50.024;14.492;2022-12-18T09:42:02;99865.44;;;-6.55;76.57
75788;BME280;64406;50.024;14.492;2022-12-18T09:44:33;99872.91;;;-6.50;77.51
75788;BME280;64406;50.024;14.492;2022-12-18T09:47:06;99871.28;;;-6.72;76.61
75788;BME280;64406;50.024;14.492;2022-12-18T09:49:36;99881.94;;;-6.64;75.80
75788;BME280;64406;50.024;14.492;2022-12-18T09:52:09;99896.97;;;-6.45;76.88
75788;BME280;64406;50.024;14.492;2022-12-18T09:54:41;99895.69;;;-6.51;75.39
75788;BME280;64406;50.024;14.492;2022-12-18T09:57:13;99906.53;;;-6.35;75.12
75788;BME280;64406;50.024;14.492;2022-12-18T09:59:41;99902.56;;;-6.29;75.14
75788;BME280;64406;50.024;14.492;2022-12-18T10:02:19;99901.88;;;-6.31;75.23
75788;BME280;64406;50.024;14.492;2022-12-18T10:05:17;99910.31;;;-6.48;75.46
75788;BME280;64406;50.024;14.492;2022-12-18T10:08:02;99916.50;;;-6.70;76.54
75788;BME280;64406;50.024;14.492;2022-12-18T10:10:33;99912.59;;;-6.55;75.49
75788;BME280;64406;50.024;14.492;2022-12-18T10:13:07;99908.31;;;-6.56;75.35
75788;BME280;64406;50.024;14.492;2022-12-18T10:16:15;99896.22;;;-6.47;74.80
75788;BME280;64406;50.024;14.492;2022-12-18T10:24:33;99887.88;;;-6.11;73.92
75788;BME280;64406;50.024;14.492;2022-12-18T10:27:21;99878.59;;;-6.24;72.66
75788;BME280;64406;50.024;14.492;2022-12-18T10:29:47;99878.44;;;-6.23;73.82
75788;BME280;64406;50.024;14.492;2022-12-18T10:32:24;99871.81;;;-6.27;73.69
75788;BME280;64406;50.024;14.492;2022-12-18T10:34:52;99876.44;;;-6.10;73.62
75788;BME280;64406;50.024;14.492;2022-12-18T10:37:20;99869.16;;;-6.06;73.46
75788;BME280;64406;50.024;14.492;2022-12-18T10:40:06;99854.81;;;-6.33;74.03
75788;BME280;64406;50.024;14.492;2022-12-18T10:42:32;99855.50;;;-6.31;72.29
75788;BME280;64406;50.024;14.492;2022-12-18T10:45:05;99846.66;;;-6.30;72.74
75788;BME280;64406;50.024;14.492;2022-12-18T10:47:33;99854.59;;;-6.41;73.33
75788;BME280;64406;50.024;14.492;2022-12-18T10:49:59;99837.66;;;-6.37;72.88
75788;BME280;64406;50.024;14.492;2022-12-18T10:52:26;99839.94;;;-6.22;72.89
75788;BME280;64406;50.024;14.492;2022-12-18T10:54:58;99827.94;;;-6.25;71.88
75788;BME280;64406;50.024;14.492;2022-12-18T10:59:53;99834.59;;;-6.42;72.10
75788;BME280;64406;50.024;14.492;2022-12-18T11:02:37;99821.56;;;-6.32;71.71
75788;BME280;64406;50.024;14.492;2022-12-18T11:05:24;99820.00;;;-6.35;71.83
75788;BME280;64406;50.024;14.492;2022-12-18T11:07:50;99819.75;;;-6.32;71.35
75788;BME280;64406;50.024;14.492;2022-12-18T11:10:17;99822.22;;;-6.40;71.56
75788;BME280;64406;50.024;14.492;2022-12-18T11:12:43;99817.91;;;-6.41;71.26
75788;BME280;64406;50.024;14.492;2022-12-18T11:15:19;99818.84;;;-6.51;71.84
75788;BME280;64406;50.024;14.492;2022-12-18T11:17:48;99818.56;;;-6.48;71.04
75788;BME280;64406;50.024;14.492;2022-12-18T11:20:27;99819.06;;;-6.64;72.62
75788;BME280;64406;50.024;14.492;2022-12-18T11:23:10;99817.56;;;-6.57;71.14
75788;BME280;64406;50.024;14.492;2022-12-18T11:25:37;99823.13;;;-6.50;71.62
75788;BME280;64406;50.024;14.492;2022-12-18T11:28:28;99814.00;;;-6.25;72.16
75788;BME280;64406;50.024;14.492;2022-12-18T11:31:26;99817.75;;;-6.18;71.43
75788;BME280;64406;50.024;14.492;2022-12-18T11:34:28;99821.53;;;-6.63;70.94
75788;BME280;64406;50.024;14.492;2022-12-18T11:36:58;99815.44;;;-6.42;72.11
75788;BME280;64406;50.024;14.492;2022-12-18T11:39:36;99815.59;;;-6.34;71.18
75788;BME280;64406;50.024;14.492;2022-12-18T11:42:58;99811.69;;;-6.19;70.90
75788;BME280;64406;50.024;14.492;2022-12-18T11:53:01;99816.56;;;-5.85;70.75
75788;BME280;64406;50.024;14.492;2022-12-18T11:55:41;99817.53;;;-5.96;70.41
75788;BME280;64406;50.024;14.492;2022-12-18T12:06:28;99818.66;;;-5.69;72.27
75788;BME280;64406;50.024;14.492;2022-12-18T12:11:55;99821.78;;;-6.05;71.54
75788;BME280;64406;50.024;14.492;2022-12-18T12:14:44;99824.88;;;-6.30;73.87
75788;BME280;64406;50.024;14.492;2022-12-18T12:17:30;99831.16;;;-6.42;73.94
75788;BME280;64406;50.024;14.492;2022-12-18T12:25:52;99813.75;;;-6.74;75.41
75788;BME280;64406;50.024;14.492;2022-12-18T12:37:09;99816.22;;;-6.51;75.53
75788;BME280;64406;50.024;14.492;2022-12-18T12:39:40;99830.75;;;-6.68;76.31
75788;BME280;64406;50.024;14.492;2022-12-18T12:42:15;99827.25;;;-6.48;76.46
75788;BME280;64406;50.024;14.492;2022-12-18T12:45:15;99820.22;;;-6.26;75.57
75788;BME280;64406;50.024;14.492;2022-12-18T12:47:43;99823.38;;;-6.23;75.20
75788;BME280;64406;50.024;14.492;2022-12-18T12:50:16;99828.94;;;-6.16;75.46
75788;BME280;64406;50.024;14.492;2022-12-18T12:52:50;99828.91;;;-6.26;75.15
75788;BME280;64406;50.024;14.492;2022-12-18T12:55:25;99842.41;;;-6.31;75.76
75788;BME280;64406;50.024;14.492;2022-12-18T13:00:36;99836.19;;;-6.30;76.10
75788;BME280;64406;50.024;14.492;2022-12-18T13:06:09;99843.84;;;-6.17;75.63
75788;BME280;64406;50.024;14.492;2022-12-18T13:08:56;99848.94;;;-6.15;76.25
75788;BME280;64406;50.024;14.492;2022-12-18T13:14:27;99838.66;;;-5.88;75.23
75788;BME280;64406;50.024;14.492;2022-12-18T13:17:14;99840.56;;;-5.90;76.15
75788;BME280;64406;50.024;14.492;2022-12-18T13:19:40;99834.69;;;-5.72;75.79
75788;BME280;64406;50.024;14.492;2022-12-18T13:22:43;99829.59;;;-5.55;74.43
75788;BME280;64406;50.024;14.492;2022-12-18T13:25:35;99826.97;;;-5.55;75.81
75788;BME280;64406;50.024;14.492;2022-12-18T13:30:57;99819.78;;;-5.62;76.68
75788;BME280;64406;50.024;14.492;2022-12-18T13:33:30;99830.56;;;-5.65;76.25
75788;BME280;64406;50.024;14.492;2022-12-18T13:38:44;99818.94;;;-5.72;76.79
75788;BME280;64406;50.024;14.492;2022-12-18T13:41:27;99816.13;;;-5.90;76.67
75788;BME280;64406;50.024;14.492;2022-12-18T13:43:55;99821.81;;;-5.85;77.57
75788;BME280;64406;50.024;14.492;2022-12-18T13:46:43;99825.16;;;-5.93;76.78
75788;BME280;64406;50.024;14.492;2022-12-18T13:51:41;99816.41;;;-6.03;77.97
75788;BME280;64406;50.024;14.492;2022-12-18T13:56:46;99821.28;;;-6.29;78.02
75788;BME280;64406;50.024;14.492;2022-12-18T13:59:15;99825.41;;;-6.36;78.25
75788;BME280;64406;50.024;14.492;2022-12-18T14:01:55;99826.50;;;-6.39;78.57
75788;BME280;64406;50.024;14.492;2022-12-18T14:04:26;99835.13;;;-6.48;79.18
75788;BME280;64406;50.024;14.492;2022-12-18T14:07:01;99828.41;;;-6.41;78.17
75788;BME280;64406;50.024;14.492;2022-12-18T14:09:35;99832.25;;;-6.45;77.68
75788;BME280;64406;50.024;14.492;2022-12-18T14:12:01;99839.22;;;-6.55;78.23
75788;BME280;64406;50.024;14.492;2022-12-18T14:14:48;99835.22;;;-6.59;78.03
75788;BME280;64406;50.024;14.492;2022-12-18T14:17:15;99835.59;;;-6.64;79.07
75788;BME280;64406;50.024;14.492;2022-12-18T14:19:47;99840.97;;;-6.65;78.76
75788;BME280;64406;50.024;14.492;2022-12-18T14:22:16;99854.91;;;-6.65;78.84
75788;BME280;64406;50.024;14.492;2022-12-18T14:24:43;99857.75;;;-6.68;78.26
75788;BME280;64406;50.024;14.492;2022-12-18T14:27:20;99859.47;;;-6.67;78.26
75788;BME280;64406;50.024;14.492;2022-12-18T14:29:46;99843.84;;;-6.68;78.49
75788;BME280;64406;50.024;14.492;2022-12-18T14:32:13;99857.38;;;-6.63;78.11